createdAt,value
2022-12-31T00:01:44.468Z,9.69
2022-12-31T00:04:10.874Z,9.73
2022-12-31T00:06:37.418Z,9.75
2022-12-31T00:09:06.403Z,9.71
2022-12-31T00:11:35.036Z,9.72
2022-12-31T00:14:01.456Z,9.69
2022-12-31T00:16:31.065Z,9.66
2022-12-31T00:18:59.486Z,9.68
2022-12-31T00:21:27.648Z,9.71
2022-12-31T00:23:54.549Z,9.75
2022-12-31T00:26:24.886Z,9.78
2022-12-31T00:28:52.805Z,9.80
2022-12-31T00:31:30.692Z,9.79
2022-12-31T00:33:57.815Z,9.87
2022-12-31T00:36:32.529Z,9.88
2022-12-31T00:39:00.416Z,9.89
2022-12-31T00:41:28.328Z,9.92
2022-12-31T00:43:55.120Z,9.93
2022-12-31T00:46:26.168Z,9.91
2022-12-31T00:48:53.480Z,9.95
2022-12-31T00:51:22.452Z,9.99
2022-12-31T00:53:48.827Z,10.02
2022-12-31T00:56:18.296Z,9.99
2022-12-31T00:58:45.234Z,10.00
2022-12-31T01:01:20.620Z,10.05
2022-12-31T01:03:48.686Z,10.10
2022-12-31T01:06:15.816Z,10.14
2022-12-31T01:08:42.240Z,10.20
2022-12-31T01:11:24.352Z,10.28
2022-12-31T01:13:59.727Z,10.33
2022-12-31T01:16:27.725Z,10.28
2022-12-31T01:18:54.711Z,10.35
2022-12-31T01:21:21.987Z,10.38
2022-12-31T01:23:49.061Z,10.38
2022-12-31T01:26:18.676Z,10.42
2022-12-31T01:28:45.372Z,10.42
2022-12-31T01:31:17.537Z,10.45
2022-12-31T01:33:44.907Z,10.49
2022-12-31T01:36:12.899Z,10.50
2022-12-31T01:38:39.882Z,10.53
2022-12-31T01:41:06.962Z,10.52
2022-12-31T01:43:42.499Z,10.55
2022-12-31T01:46:12.455Z,10.57
2022-12-31T01:48:39.091Z,10.57
2022-12-31T01:51:09.065Z,10.61
2022-12-31T01:53:38.204Z,10.66
2022-12-31T01:56:07.421Z,10.65
2022-12-31T01:58:42.901Z,10.67
2022-12-31T02:01:12.788Z,10.71
2022-12-31T02:03:42.926Z,10.73
2022-12-31T02:06:21.338Z,10.73
2022-12-31T02:08:48.387Z,10.82
2022-12-31T02:11:24.203Z,10.75
2022-12-31T02:13:58.140Z,10.71
2022-12-31T02:16:28.128Z,10.71
2022-12-31T02:19:15.299Z,10.70
2022-12-31T02:21:50.759Z,10.67
2022-12-31T02:24:40.598Z,10.70
2022-12-31T02:27:31.719Z,10.74
2022-12-31T02:30:04.020Z,10.75
2022-12-31T02:32:35.077Z,10.82
2022-12-31T02:35:08.612Z,10.83
2022-12-31T02:37:37.914Z,10.79
2022-12-31T02:40:11.123Z,10.73
2022-12-31T02:42:37.544Z,10.79
2022-12-31T02:45:04.197Z,10.72
2022-12-31T02:47:38.390Z,10.72
2022-12-31T02:50:23.489Z,10.69
2022-12-31T02:53:08.057Z,10.71
2022-12-31T02:56:05.749Z,10.66
2022-12-31T02:59:22.195Z,10.65
2022-12-31T03:02:14.211Z,10.75
2022-12-31T03:04:43.950Z,10.69
2022-12-31T03:07:13.989Z,10.70
2022-12-31T03:09:40.710Z,10.74
2022-12-31T03:12:29.355Z,10.73
2022-12-31T03:14:55.960Z,10.75
2022-12-31T03:17:23.010Z,10.76
2022-12-31T03:20:08.264Z,10.71
2022-12-31T03:22:39.100Z,10.64
2022-12-31T03:25:26.451Z,10.67
2022-12-31T03:28:08.516Z,10.74
2022-12-31T03:30:37.689Z,10.70
2022-12-31T03:33:07.003Z,10.73
2022-12-31T03:35:35.998Z,10.71
2022-12-31T03:38:03.131Z,10.73
2022-12-31T03:40:31.045Z,10.79
2022-12-31T03:42:57.942Z,10.77
2022-12-31T03:45:24.796Z,10.80
2022-12-31T03:47:51.279Z,10.79
2022-12-31T03:50:18.667Z,10.80
2022-12-31T03:52:45.131Z,10.84
2022-12-31T03:55:12.112Z,10.84
2022-12-31T03:57:39.371Z,10.81
2022-12-31T04:00:08.687Z,10.87
2022-12-31T04:02:35.384Z,10.88
2022-12-31T04:05:02.055Z,10.85
2022-12-31T04:07:28.501Z,10.86
2022-12-31T04:09:54.903Z,10.88
2022-12-31T04:12:21.377Z,10.88
2022-12-31T04:14:47.800Z,10.89
2022-12-31T04:17:14.193Z,10.89
2022-12-31T04:19:40.576Z,10.91
2022-12-31T04:22:07.085Z,10.92
2022-12-31T04:24:33.607Z,10.96
2022-12-31T04:27:07.099Z,10.95
2022-12-31T04:29:34.128Z,10.97
2022-12-31T04:32:00.819Z,10.96
2022-12-31T04:34:27.586Z,10.99
2022-12-31T04:36:54.045Z,11.01
2022-12-31T04:39:20.497Z,11.07
2022-12-31T04:41:47.059Z,11.14
2022-12-31T04:44:13.707Z,11.10
2022-12-31T04:46:40.143Z,11.14
2022-12-31T04:49:06.706Z,11.14
2022-12-31T04:51:33.759Z,11.18
2022-12-31T04:54:00.368Z,11.25
2022-12-31T04:56:28.092Z,11.29
2022-12-31T04:58:54.913Z,11.37
2022-12-31T05:01:21.652Z,11.33
2022-12-31T05:03:49.117Z,11.35
2022-12-31T05:06:18.740Z,11.38
2022-12-31T05:08:45.913Z,11.42
2022-12-31T05:11:12.568Z,11.45
2022-12-31T05:13:39.414Z,11.45
2022-12-31T05:16:06.455Z,11.46
2022-12-31T05:18:33.058Z,11.50
2022-12-31T05:20:59.670Z,11.48
2022-12-31T05:23:26.552Z,11.42
2022-12-31T05:25:53.398Z,11.47
2022-12-31T05:28:20.218Z,11.50
2022-12-31T05:30:50.043Z,11.50
2022-12-31T05:33:17.748Z,11.54
2022-12-31T05:35:44.938Z,11.54
2022-12-31T05:38:11.417Z,11.55
2022-12-31T05:40:37.855Z,11.57
2022-12-31T05:43:04.269Z,11.60
2022-12-31T05:45:31.300Z,11.64
2022-12-31T05:47:58.406Z,11.62
2022-12-31T05:50:25.052Z,11.62
2022-12-31T05:52:51.512Z,11.67
2022-12-31T05:55:17.913Z,11.77
2022-12-31T05:57:44.299Z,11.78
2022-12-31T06:00:11.546Z,11.79
2022-12-31T06:02:37.980Z,11.83
2022-12-31T06:05:04.885Z,11.89
2022-12-31T06:07:31.312Z,11.95
2022-12-31T06:09:57.669Z,11.92
2022-12-31T06:12:24.098Z,11.92
2022-12-31T06:14:50.506Z,11.93
2022-12-31T06:17:16.986Z,11.93
2022-12-31T06:19:43.408Z,11.95
2022-12-31T06:22:09.831Z,11.90
2022-12-31T06:24:36.235Z,11.90
2022-12-31T06:27:02.702Z,11.95
2022-12-31T06:29:29.109Z,11.90
2022-12-31T06:31:55.525Z,11.87
2022-12-31T06:34:21.902Z,11.86
2022-12-31T06:36:48.296Z,11.81
2022-12-31T06:39:14.704Z,11.83
2022-12-31T06:41:41.222Z,11.82
2022-12-31T06:44:07.617Z,11.85
2022-12-31T06:46:34.075Z,11.81
2022-12-31T06:49:00.504Z,11.83
2022-12-31T06:51:26.947Z,11.87
2022-12-31T06:53:53.441Z,11.84
2022-12-31T06:56:26.566Z,11.89
2022-12-31T06:58:56.380Z,11.90
2022-12-31T07:01:33.386Z,11.93
2022-12-31T07:04:18.456Z,11.93
2022-12-31T07:07:22.626Z,11.93
2022-12-31T07:10:06.280Z,11.90
2022-12-31T07:12:57.479Z,11.98
2022-12-31T07:16:03.048Z,12.01
2022-12-31T07:18:39.026Z,12.00
2022-12-31T07:21:12.567Z,11.99
2022-12-31T07:23:40.142Z,12.01
2022-12-31T07:26:35.477Z,12.00
2022-12-31T07:29:09.315Z,11.97
2022-12-31T07:31:57.543Z,11.98
2022-12-31T07:34:23.888Z,12.01
2022-12-31T07:37:08.487Z,12.03
2022-12-31T07:39:48.271Z,12.06
2022-12-31T07:42:36.995Z,12.08
2022-12-31T07:45:12.994Z,12.05
2022-12-31T07:47:39.650Z,12.11
2022-12-31T07:50:06.799Z,12.13
2022-12-31T07:52:33.470Z,12.12
2022-12-31T07:54:59.888Z,12.11
2022-12-31T07:57:35.873Z,12.17
2022-12-31T08:00:12.968Z,12.17
2022-12-31T08:03:29.121Z,12.31
2022-12-31T08:06:12.170Z,12.48
2022-12-31T08:09:03.475Z,12.45
2022-12-31T08:11:55.409Z,12.55
2022-12-31T08:14:22.305Z,12.63
2022-12-31T08:16:49.483Z,12.65
2022-12-31T08:19:29.808Z,12.72
2022-12-31T08:22:40.752Z,12.93
2022-12-31T08:25:48.229Z,13.23
2022-12-31T08:28:33.363Z,13.61
2022-12-31T08:31:05.405Z,13.73
2022-12-31T08:33:48.669Z,13.79
2022-12-31T08:36:27.286Z,13.88
2022-12-31T08:38:59.614Z,14.08
2022-12-31T08:41:43.330Z,14.02
2022-12-31T08:44:34.719Z,13.90
2022-12-31T08:47:22.189Z,13.88
2022-12-31T08:49:48.866Z,13.83
2022-12-31T08:52:21.784Z,13.77
2022-12-31T08:54:48.400Z,13.66
2022-12-31T08:57:49.356Z,13.66
2022-12-31T09:00:19.407Z,13.57
2022-12-31T09:03:28.007Z,13.54
2022-12-31T09:06:18.772Z,13.48
2022-12-31T09:09:15.078Z,13.56
2022-12-31T09:11:52.540Z,13.63
2022-12-31T09:14:41.387Z,13.57
2022-12-31T09:17:16.972Z,13.54
2022-12-31T09:19:43.359Z,13.53
2022-12-31T09:22:10.781Z,13.59
2022-12-31T09:24:37.445Z,13.57
2022-12-31T09:27:36.890Z,13.54
2022-12-31T09:30:10.870Z,13.62
2022-12-31T09:33:02.524Z,13.59
2022-12-31T09:35:36.477Z,13.62
2022-12-31T09:38:19.665Z,13.69
2022-12-31T09:40:53.970Z,13.70
2022-12-31T09:44:01.791Z,13.84
2022-12-31T09:47:01.770Z,13.87
2022-12-31T09:50:06.036Z,13.86
2022-12-31T09:55:35.563Z,13.95
2022-12-31T09:58:16.375Z,13.99
2022-12-31T10:00:50.223Z,13.99
2022-12-31T10:03:28.812Z,14.03
2022-12-31T10:06:17.158Z,14.03
2022-12-31T10:09:08.605Z,14.02
2022-12-31T10:11:56.818Z,14.00
2022-12-31T10:14:47.717Z,14.01
2022-12-31T10:17:48.954Z,14.10
2022-12-31T10:20:43.348Z,14.14
2022-12-31T10:23:33.211Z,14.14
2022-12-31T10:26:27.697Z,14.18
2022-12-31T10:28:59.610Z,14.35
2022-12-31T10:31:35.251Z,14.35
2022-12-31T10:34:22.839Z,14.31
2022-12-31T10:36:53.907Z,14.49
2022-12-31T10:39:50.289Z,14.50
2022-12-31T10:42:35.845Z,14.60
2022-12-31T10:45:18.291Z,14.60
2022-12-31T10:48:25.733Z,14.58
2022-12-31T10:51:26.589Z,14.64
2022-12-31T10:54:25.920Z,14.76
2022-12-31T10:57:06.896Z,14.83
2022-12-31T10:59:54.697Z,14.89
2022-12-31T11:02:50.240Z,15.00
2022-12-31T11:05:53.623Z,15.06
2022-12-31T11:08:57.174Z,15.08
2022-12-31T11:11:39.276Z,15.12
2022-12-31T11:14:39.666Z,15.13
2022-12-31T11:17:09.003Z,15.14
2022-12-31T11:20:03.253Z,15.18
2022-12-31T11:22:58.511Z,15.20
2022-12-31T11:25:52.790Z,15.29
2022-12-31T11:28:34.297Z,15.33
2022-12-31T11:31:13.099Z,15.34
2022-12-31T11:33:52.791Z,15.40
2022-12-31T11:37:04.140Z,15.37
2022-12-31T11:39:43.217Z,15.31
2022-12-31T11:42:21.311Z,15.41
2022-12-31T11:45:13.896Z,15.38
2022-12-31T11:48:29.032Z,15.37
2022-12-31T11:50:48.966Z,15.37
2022-12-31T11:53:39.677Z,15.45
2022-12-31T11:56:21.012Z,15.28
2022-12-31T11:58:51.107Z,15.35
2022-12-31T12:01:24.713Z,15.30
2022-12-31T12:03:51.283Z,15.32
2022-12-31T12:06:23.149Z,15.31
2022-12-31T12:08:50.330Z,15.32
2022-12-31T12:11:26.344Z,15.34
2022-12-31T12:13:52.756Z,15.35
2022-12-31T12:16:21.900Z,15.46
2022-12-31T12:19:05.751Z,15.46
2022-12-31T12:21:33.003Z,15.53
2022-12-31T12:24:05.227Z,15.48
2022-12-31T12:26:43.096Z,15.49
2022-12-31T12:29:21.906Z,15.52
2022-12-31T12:32:22.053Z,15.45
2022-12-31T12:34:50.086Z,15.50
2022-12-31T12:37:29.970Z,15.56
2022-12-31T12:40:00.879Z,15.54
2022-12-31T12:42:28.462Z,15.63
2022-12-31T12:45:14.812Z,15.63
2022-12-31T12:47:43.258Z,15.66
2022-12-31T12:50:21.732Z,15.63
2022-12-31T12:53:02.689Z,15.58
2022-12-31T12:55:41.694Z,15.75
2022-12-31T12:58:43.672Z,15.67
2022-12-31T13:01:23.979Z,15.65
2022-12-31T13:04:33.591Z,15.70
2022-12-31T13:07:11.758Z,15.59
2022-12-31T13:10:12.095Z,15.62
2022-12-31T13:13:22.646Z,15.60
2022-12-31T13:15:39.901Z,15.57
2022-12-31T13:18:36.644Z,15.52
2022-12-31T13:21:21.260Z,15.55
2022-12-31T13:24:02.436Z,15.62
2022-12-31T13:26:35.858Z,15.61
2022-12-31T13:29:05.393Z,15.64
2022-12-31T13:31:36.210Z,15.73
2022-12-31T13:34:28.851Z,15.72
2022-12-31T13:36:57.307Z,15.74
2022-12-31T13:39:26.971Z,15.75
2022-12-31T13:42:02.421Z,15.66
2022-12-31T13:44:47.762Z,15.58
2022-12-31T13:47:35.572Z,15.57
2022-12-31T13:50:32.558Z,15.53
2022-12-31T13:53:07.043Z,15.44
2022-12-31T13:55:41.471Z,15.49
2022-12-31T13:58:23.335Z,15.43
2022-12-31T14:01:11.659Z,15.43
2022-12-31T14:04:04.451Z,15.34
2022-12-31T14:06:50.266Z,15.32
2022-12-31T14:09:25.684Z,15.31
2022-12-31T14:12:01.063Z,15.24
2022-12-31T14:14:42.114Z,15.23
2022-12-31T14:17:23.455Z,15.19
2022-12-31T14:20:06.821Z,15.15
2022-12-31T14:22:53.524Z,15.04
2022-12-31T14:25:34.076Z,14.99
2022-12-31T14:28:03.141Z,14.98
2022-12-31T14:30:33.635Z,14.95
2022-12-31T14:33:12.032Z,14.81
2022-12-31T14:36:05.286Z,14.71
2022-12-31T14:38:50.346Z,14.73
2022-12-31T14:41:36.658Z,14.67
2022-12-31T14:44:31.862Z,14.58
2022-12-31T14:47:13.351Z,14.56
2022-12-31T14:50:18.115Z,14.57
2022-12-31T14:52:59.961Z,14.52
2022-12-31T14:55:34.824Z,14.51
2022-12-31T14:58:27.619Z,14.48
2022-12-31T15:01:01.565Z,14.49
2022-12-31T15:03:31.041Z,14.50
2022-12-31T15:06:19.536Z,14.44
2022-12-31T15:09:08.732Z,14.47
2022-12-31T15:11:57.128Z,14.46
2022-12-31T15:14:37.611Z,14.41
2022-12-31T15:17:12.512Z,14.38
2022-12-31T15:19:53.821Z,14.29
2022-12-31T15:22:38.619Z,14.23
2022-12-31T15:25:34.020Z,14.20
2022-12-31T15:28:07.868Z,14.10
2022-12-31T15:30:39.499Z,14.09
2022-12-31T15:33:23.737Z,14.03
2022-12-31T15:35:52.986Z,13.92
2022-12-31T15:38:29.848Z,13.92
2022-12-31T15:40:56.376Z,13.88
2022-12-31T15:43:49.272Z,13.85
2022-12-31T15:46:23.261Z,13.81
2022-12-31T15:49:01.929Z,13.75
2022-12-31T15:51:48.934Z,13.80
2022-12-31T15:54:37.508Z,13.78
2022-12-31T15:57:09.297Z,13.78
2022-12-31T15:59:38.093Z,13.80
2022-12-31T16:02:04.538Z,13.85
2022-12-31T16:04:33.465Z,13.78
2022-12-31T16:07:02.567Z,13.80
2022-12-31T16:09:35.772Z,13.91
2022-12-31T16:12:12.373Z,13.89
2022-12-31T16:14:42.619Z,13.87
2022-12-31T16:17:30.811Z,13.85
2022-12-31T16:19:58.502Z,13.88
2022-12-31T16:22:26.711Z,13.83
2022-12-31T16:25:29.056Z,13.81
2022-12-31T16:27:42.359Z,13.81
2022-12-31T16:30:21.151Z,13.80
2022-12-31T16:32:49.791Z,13.78
2022-12-31T16:35:25.575Z,13.75
2022-12-31T16:38:07.858Z,13.76
2022-12-31T16:40:34.851Z,13.69
2022-12-31T16:43:01.325Z,13.69
2022-12-31T16:45:34.243Z,13.68
2022-12-31T16:48:12.810Z,13.68
2022-12-31T16:50:49.358Z,13.62
2022-12-31T16:53:22.367Z,13.59
2022-12-31T16:56:00.237Z,13.57
2022-12-31T16:58:31.233Z,13.52
2022-12-31T17:01:28.082Z,13.56
2022-12-31T17:04:00.074Z,13.57
2022-12-31T17:06:28.385Z,13.52
2022-12-31T17:08:59.437Z,13.54
2022-12-31T17:11:34.590Z,13.50
2022-12-31T17:14:13.671Z,13.50
2022-12-31T17:17:07.951Z,13.48
2022-12-31T17:19:42.004Z,13.46
2022-12-31T17:22:34.378Z,13.46
2022-12-31T17:25:07.563Z,13.42
2022-12-31T17:27:35.846Z,13.40
2022-12-31T17:30:22.715Z,13.34
2022-12-31T17:32:50.133Z,13.35
2022-12-31T17:35:33.256Z,13.36
2022-12-31T17:38:18.312Z,13.38
2022-12-31T17:40:51.733Z,13.41
2022-12-31T17:43:20.585Z,13.44
2022-12-31T17:45:52.520Z,13.43
2022-12-31T17:48:20.463Z,13.43
2022-12-31T17:50:48.353Z,13.41
2022-12-31T17:53:15.166Z,13.45
2022-12-31T17:55:45.291Z,13.40
2022-12-31T17:58:33.187Z,13.37
2022-12-31T18:01:00.446Z,13.42
2022-12-31T18:03:27.071Z,13.38
2022-12-31T18:05:53.684Z,13.42
2022-12-31T18:08:20.161Z,13.38
2022-12-31T18:10:46.710Z,13.41
2022-12-31T18:13:19.939Z,13.38
2022-12-31T18:15:46.666Z,13.34
2022-12-31T18:18:24.316Z,13.35
2022-12-31T18:21:01.887Z,13.32
2022-12-31T18:23:35.159Z,13.28
2022-12-31T18:26:02.318Z,13.26
2022-12-31T18:28:28.739Z,13.22
2022-12-31T18:30:55.281Z,13.22
2022-12-31T18:33:26.783Z,13.20
2022-12-31T18:36:10.262Z,13.21
2022-12-31T18:38:37.477Z,13.17
2022-12-31T18:41:04.354Z,13.12
2022-12-31T18:43:30.860Z,13.08
2022-12-31T18:45:57.565Z,13.10
2022-12-31T18:48:24.152Z,13.05
2022-12-31T18:50:50.945Z,13.05
2022-12-31T18:53:22.836Z,13.02
2022-12-31T18:55:58.386Z,13.12
2022-12-31T18:58:24.847Z,13.08
2022-12-31T19:00:52.086Z,13.08
2022-12-31T19:03:24.433Z,12.99
2022-12-31T19:05:51.893Z,12.94
2022-12-31T19:08:20.919Z,12.88
2022-12-31T19:10:49.408Z,12.88
2022-12-31T19:13:16.893Z,12.90
2022-12-31T19:15:51.880Z,12.94
2022-12-31T19:18:18.326Z,12.93
2022-12-31T19:20:45.096Z,12.87
2022-12-31T19:23:17.752Z,12.91
2022-12-31T19:25:45.557Z,12.91
2022-12-31T19:28:20.582Z,12.89
2022-12-31T19:30:47.124Z,12.88
2022-12-31T19:33:14.058Z,12.92
2022-12-31T19:35:41.620Z,12.91
2022-12-31T19:38:18.681Z,12.88
2022-12-31T19:40:45.746Z,12.82
2022-12-31T19:43:14.773Z,12.81
2022-12-31T19:45:43.047Z,12.75
2022-12-31T19:48:12.591Z,12.82
2022-12-31T19:50:43.021Z,12.79
2022-12-31T19:53:15.477Z,12.76
2022-12-31T19:55:42.086Z,12.82
2022-12-31T19:58:15.386Z,12.76
2022-12-31T20:00:41.771Z,12.74
2022-12-31T20:03:10.940Z,12.70
2022-12-31T20:05:37.430Z,12.77
2022-12-31T20:08:03.895Z,12.82
2022-12-31T20:10:30.514Z,12.87
2022-12-31T20:12:56.925Z,12.90
2022-12-31T20:15:23.299Z,12.90
2022-12-31T20:17:49.723Z,12.96
2022-12-31T20:20:16.165Z,13.00
2022-12-31T20:22:42.563Z,12.97
2022-12-31T20:25:09.276Z,12.98
2022-12-31T20:27:36.746Z,13.02
2022-12-31T20:30:03.650Z,13.01
2022-12-31T20:32:30.058Z,13.02
2022-12-31T20:34:56.490Z,13.01
2022-12-31T20:37:22.935Z,13.02
2022-12-31T20:39:49.362Z,13.03
2022-12-31T20:42:15.763Z,13.08
2022-12-31T20:44:42.196Z,13.07
2022-12-31T20:47:08.761Z,13.06
2022-12-31T20:50:09.762Z,13.10
2022-12-31T20:52:23.331Z,13.18
2022-12-31T20:54:49.748Z,13.11
2022-12-31T20:57:16.511Z,13.09
2022-12-31T20:59:42.884Z,13.06
2022-12-31T21:02:21.889Z,13.02
2022-12-31T21:04:49.393Z,13.03
2022-12-31T21:07:16.009Z,13.00
2022-12-31T21:09:42.400Z,13.00
2022-12-31T21:12:29.901Z,12.95
2022-12-31T21:14:59.161Z,12.95
2022-12-31T21:17:25.662Z,12.95
2022-12-31T21:19:52.039Z,12.95
2022-12-31T21:22:18.417Z,12.94
2022-12-31T21:24:44.795Z,12.97
2022-12-31T21:27:11.244Z,12.95
2022-12-31T21:29:55.696Z,12.91
2022-12-31T21:32:24.109Z,12.92
2022-12-31T21:35:14.369Z,12.99
2022-12-31T21:37:57.408Z,12.95
2022-12-31T21:40:23.401Z,13.01
2022-12-31T21:42:50.258Z,12.98
2022-12-31T21:45:16.718Z,12.96
2022-12-31T21:48:01.714Z,13.00
2022-12-31T21:50:28.227Z,13.01
2022-12-31T21:52:54.800Z,12.99
2022-12-31T21:55:39.768Z,12.93
2022-12-31T22:01:11.335Z,12.92
2022-12-31T22:03:37.878Z,12.95
2022-12-31T22:06:12.977Z,12.95
2022-12-31T22:08:44.516Z,12.97
2022-12-31T22:11:12.392Z,12.95
2022-12-31T22:13:39.182Z,12.94
2022-12-31T22:16:06.595Z,12.97
2022-12-31T22:18:35.533Z,12.99
2022-12-31T22:21:17.728Z,12.97
2022-12-31T22:23:46.440Z,12.97
2022-12-31T22:26:15.203Z,12.98
2022-12-31T22:28:43.491Z,12.95
2022-12-31T22:31:14.254Z,12.95
2022-12-31T22:33:41.056Z,12.96
2022-12-31T22:36:11.183Z,13.00
2022-12-31T22:38:37.628Z,13.00
2022-12-31T22:41:06.444Z,12.99
2022-12-31T22:43:34.123Z,12.99
2022-12-31T22:46:06.858Z,13.01
2022-12-31T22:48:33.301Z,12.96
2022-12-31T22:50:59.713Z,12.98
2022-12-31T22:53:26.083Z,12.98
2022-12-31T22:55:55.672Z,13.00
2022-12-31T22:58:25.165Z,12.98
2022-12-31T23:00:52.111Z,12.98
2022-12-31T23:03:18.620Z,13.06
2022-12-31T23:05:49.528Z,13.05
2022-12-31T23:08:22.677Z,12.96
2022-12-31T23:11:02.781Z,12.93
2022-12-31T23:13:59.656Z,12.93
2022-12-31T23:16:46.950Z,12.86
2022-12-31T23:19:33.850Z,12.93
2022-12-31T23:22:18.694Z,12.88
2022-12-31T23:24:45.095Z,12.87
2022-12-31T23:27:12.220Z,12.79
2022-12-31T23:29:46.112Z,12.80
2022-12-31T23:32:17.977Z,12.72
2022-12-31T23:34:45.999Z,12.75
2022-12-31T23:37:13.940Z,12.69
2022-12-31T23:39:41.210Z,12.63
2022-12-31T23:42:07.875Z,12.60
2022-12-31T23:44:34.305Z,12.62
2022-12-31T23:47:00.803Z,12.54
2022-12-31T23:49:27.278Z,12.54
2022-12-31T23:51:53.644Z,12.49
2022-12-31T23:54:20.166Z,12.54
2022-12-31T23:56:46.555Z,12.52
2022-12-31T23:59:13.206Z,12.51
